KMJX/MJX METAR and TAF weather

Enter ICAO airport designator
Station Type Date Time Source
KMJX METAR 2020/11/27 14:56 UTC NOAA

KMJX 271456Z AUTO 33003KT 10SM OVC047 14/08 A3010 RMK AO2 SLP196 T01390083 50001


Station Type Date Time Source
KMJX Decoded METAR 2020/11/27 14:56 UTC NOAA

Station name not available
Nov 27, 2020 - 09:56 AM EST / 2020.11.27 1456 UTC
Wind: from the NNW (330 degrees) at 3 MPH (3 KT):0
Visibility: 10 mile(s):0
Sky conditions: overcast
Temperature: 57.0 F (13.9 C)
Dew Point: 46.9 F (8.3 C)
Relative Humidity: 68%
Pressure (altimeter): 30.1 in. Hg (1019 hPa)
Pressure tendency: 0.00 inches (0.1 hPa) higher than three hours ago
ob: KMJX 271456Z AUTO 33003KT 10SM OVC047 14/08 A3010 RMK AO2 SLP196 T01390083 50001
cycle: 15

Station Type Date Time Source
KMJX TAF UTC NOAA

Error!

Example: see airport list